createdAt,value
2019-02-07T00:00:00.042Z,17.25
2019-02-07T00:00:40.696Z,17.36
2019-02-07T00:01:21.285Z,17.37
2019-02-07T00:02:01.946Z,17.36
2019-02-07T00:02:42.473Z,17.34
2019-02-07T00:03:23.085Z,17.34
2019-02-07T00:04:04.018Z,17.37
2019-02-07T00:04:44.703Z,17.31
2019-02-07T00:05:25.353Z,17.4
2019-02-07T00:06:05.955Z,17.34
2019-02-07T00:06:46.593Z,17.34
2019-02-07T00:07:27.249Z,17.36
2019-02-07T00:08:07.849Z,17.36
2019-02-07T00:08:48.529Z,17.36
2019-02-07T00:09:29.143Z,17.36
2019-02-07T00:10:09.731Z,17.3
2019-02-07T00:10:50.349Z,17.36
2019-02-07T00:11:31.121Z,17.31
2019-02-07T00:12:11.865Z,17.3
2019-02-07T00:12:52.642Z,17.36
2019-02-07T00:13:33.199Z,17.3
2019-02-07T00:14:13.824Z,17.3
2019-02-07T00:14:54.423Z,17.26
2019-02-07T00:15:36.568Z,17.3
2019-02-07T00:16:15.606Z,17.37
2019-02-07T00:16:56.224Z,17.33
2019-02-07T00:17:36.841Z,17.3
2019-02-07T00:18:17.451Z,17.31
2019-02-07T00:18:58.041Z,17.31
2019-02-07T00:19:38.639Z,17.31
2019-02-07T00:20:19.258Z,17.33
2019-02-07T00:20:59.851Z,17.19
2019-02-07T00:21:40.458Z,17.4
2019-02-07T00:22:21.101Z,17.34
2019-02-07T00:23:01.720Z,17.28
2019-02-07T00:23:42.407Z,17.3
2019-02-07T00:24:23.003Z,17.37
2019-02-07T00:25:03.615Z,17.33
2019-02-07T00:25:44.291Z,17.34
2019-02-07T00:26:24.889Z,17.31
2019-02-07T00:27:05.493Z,17.22
2019-02-07T00:27:46.098Z,17.22
2019-02-07T00:28:26.704Z,17.33
2019-02-07T00:29:07.299Z,17.28
2019-02-07T00:29:47.893Z,17.31
2019-02-07T00:30:28.503Z,17.3
2019-02-07T00:31:09.097Z,17.31
2019-02-07T00:31:49.702Z,17.28
2019-02-07T00:32:30.303Z,17.3
2019-02-07T00:33:10.926Z,17.28
2019-02-07T00:33:51.531Z,17.31
2019-02-07T00:34:32.189Z,17.3
2019-02-07T00:35:12.787Z,17.25
2019-02-07T00:35:53.393Z,17.26
2019-02-07T00:36:34.021Z,17.22
2019-02-07T00:37:14.659Z,17.3
2019-02-07T00:37:55.258Z,17.23
2019-02-07T00:38:35.849Z,17.31
2019-02-07T00:39:16.477Z,17.28
2019-02-07T00:39:57.081Z,17.21
2019-02-07T00:40:37.686Z,17.26
2019-02-07T00:41:18.283Z,17.21
2019-02-07T00:41:58.899Z,17.36
2019-02-07T00:42:39.541Z,17.28
2019-02-07T00:43:20.160Z,17.26
2019-02-07T00:44:00.751Z,17.28
2019-02-07T00:44:50.367Z,17.21
2019-02-07T00:45:21.984Z,17.25
2019-02-07T00:46:02.605Z,17.31
2019-02-07T00:46:43.203Z,17.23
2019-02-07T00:47:23.819Z,17.33
2019-02-07T00:48:04.463Z,17.3
2019-02-07T00:48:45.059Z,17.3
2019-02-07T00:49:25.663Z,17.3
2019-02-07T00:50:06.367Z,17.25
2019-02-07T00:50:46.967Z,17.16
2019-02-07T00:51:27.565Z,17.28
2019-02-07T00:52:08.167Z,17.28
2019-02-07T00:52:48.753Z,17.3
2019-02-07T00:53:29.363Z,17.34
2019-02-07T00:54:09.982Z,17.31
2019-02-07T00:54:50.600Z,17.23
2019-02-07T00:55:31.225Z,17.34
2019-02-07T00:56:11.841Z,17.18
2019-02-07T00:56:52.441Z,17.31
2019-02-07T00:57:33.047Z,17.3
2019-02-07T00:58:13.641Z,17.31
2019-02-07T00:58:54.275Z,17.21
2019-02-07T00:59:34.885Z,17.28
2019-02-07T01:00:15.519Z,17.26
2019-02-07T01:00:56.186Z,17.22
2019-02-07T01:01:36.797Z,17.25
2019-02-07T01:02:17.405Z,17.19
2019-02-07T01:02:57.997Z,17.25
2019-02-07T01:03:38.603Z,17.21
2019-02-07T01:04:19.202Z,17.18
2019-02-07T01:04:59.795Z,17.19
2019-02-07T01:05:40.403Z,17.31
2019-02-07T01:06:21.085Z,17.21
2019-02-07T01:07:01.683Z,17.21
2019-02-07T01:07:42.279Z,17.19
2019-02-07T01:08:22.885Z,17.31
2019-02-07T01:09:03.619Z,17.21
2019-02-07T01:09:44.253Z,17.22
2019-02-07T01:10:24.856Z,17.16
2019-02-07T01:11:05.497Z,17.23
2019-02-07T01:11:46.145Z,17.21
2019-02-07T01:12:26.729Z,17.36
2019-02-07T01:13:07.325Z,17.19
2019-02-07T01:13:47.933Z,17.3
2019-02-07T01:14:28.593Z,17.3
2019-02-07T01:15:09.233Z,17.23
2019-02-07T01:15:49.850Z,17.18
2019-02-07T01:16:30.509Z,17.33
2019-02-07T01:17:11.107Z,17.22
2019-02-07T01:17:51.709Z,17.21
2019-02-07T01:18:32.458Z,17.3
2019-02-07T01:19:12.969Z,17.21
2019-02-07T01:19:53.585Z,17.22
2019-02-07T01:20:34.343Z,17.3
2019-02-07T01:21:14.949Z,17.21
2019-02-07T01:21:55.597Z,17.23
2019-02-07T01:22:36.221Z,17.21
2019-02-07T01:23:16.856Z,17.19
2019-02-07T01:23:57.499Z,17.23
2019-02-07T01:24:38.167Z,17.3
2019-02-07T01:25:18.791Z,17.3
2019-02-07T01:25:59.460Z,17.22
2019-02-07T01:26:40.139Z,17.22
2019-02-07T01:27:20.793Z,17.22
2019-02-07T01:28:01.531Z,17.21
2019-02-07T01:28:42.159Z,17.18
2019-02-07T01:29:22.813Z,17.19
2019-02-07T01:30:03.436Z,17.19
2019-02-07T01:30:44.187Z,17.19
2019-02-07T01:31:24.737Z,17.21
2019-02-07T01:32:05.373Z,17.33
2019-02-07T01:32:45.981Z,17.21
2019-02-07T01:33:26.642Z,17.23
2019-02-07T01:34:07.271Z,17.18
2019-02-07T01:34:47.883Z,17.21
2019-02-07T01:35:28.483Z,17.21
2019-02-07T01:36:09.077Z,17.19
2019-02-07T01:36:49.689Z,17.21
2019-02-07T01:37:30.313Z,17.22
2019-02-07T01:38:10.928Z,17.18
2019-02-07T01:38:51.539Z,17.21
2019-02-07T01:39:32.159Z,17.21
2019-02-07T01:40:12.746Z,17.19
2019-02-07T01:40:53.349Z,17.19
2019-02-07T01:41:33.943Z,17.19
2019-02-07T01:42:14.548Z,17.16
2019-02-07T01:42:55.776Z,17.21
2019-02-07T01:43:35.765Z,17.18
2019-02-07T01:44:16.369Z,17.21
2019-02-07T01:44:56.997Z,17.16
2019-02-07T01:45:37.593Z,17.23
2019-02-07T01:46:18.217Z,17.16
2019-02-07T01:46:58.830Z,17.22
2019-02-07T01:47:39.501Z,17.19
2019-02-07T01:48:20.100Z,17.19
2019-02-07T01:49:00.683Z,17.26
2019-02-07T01:49:41.295Z,17.19
2019-02-07T01:50:21.905Z,17.3
2019-02-07T01:51:02.541Z,17.16
2019-02-07T01:51:43.143Z,17.21
2019-02-07T01:52:23.794Z,17.23
2019-02-07T01:53:04.377Z,17.21
2019-02-07T01:53:45.018Z,17.19
2019-02-07T01:54:25.633Z,17.18
2019-02-07T01:55:06.261Z,17.21
2019-02-07T01:55:46.967Z,17.23
2019-02-07T01:56:27.595Z,17.21
2019-02-07T01:57:08.213Z,17.19
2019-02-07T01:57:48.821Z,17.23
2019-02-07T01:58:29.421Z,17.21
2019-02-07T01:59:10.039Z,17.23
2019-02-07T01:59:50.681Z,17.19
2019-02-07T02:00:31.306Z,17.19
2019-02-07T02:01:11.932Z,17.16
2019-02-07T02:01:52.561Z,17.21
2019-02-07T02:02:33.172Z,17.21
2019-02-07T02:03:13.764Z,17.21
2019-02-07T02:03:54.368Z,17.21
2019-02-07T02:04:34.963Z,17.19
2019-02-07T02:05:15.573Z,17.23
2019-02-07T02:05:56.169Z,17.22
2019-02-07T02:06:36.789Z,17.22
2019-02-07T02:07:17.392Z,17.23
2019-02-07T02:07:57.995Z,17.18
2019-02-07T02:08:38.577Z,17.21
2019-02-07T02:09:19.213Z,17.22
2019-02-07T02:10:01.377Z,17.23
2019-02-07T02:10:41.967Z,17.16
2019-02-07T02:11:22.557Z,17.21
2019-02-07T02:12:03.177Z,17.18
2019-02-07T02:12:43.773Z,17.25
2019-02-07T02:13:24.385Z,17.22
2019-02-07T02:14:04.986Z,17.21
2019-02-07T02:14:45.581Z,17.21
2019-02-07T02:15:26.193Z,17.21
2019-02-07T02:16:06.831Z,17.23
2019-02-07T02:16:47.433Z,17.21
2019-02-07T02:17:28.048Z,17.21
2019-02-07T02:18:08.655Z,17.23
2019-02-07T02:18:49.253Z,17.19
2019-02-07T02:19:29.861Z,17.22
2019-02-07T02:20:10.499Z,17.16
2019-02-07T02:20:51.110Z,17.23
2019-02-07T02:21:31.724Z,17.18
2019-02-07T02:22:12.360Z,17.21
2019-02-07T02:22:52.963Z,17.22
2019-02-07T02:23:33.566Z,17.22
2019-02-07T02:24:14.153Z,17.21
2019-02-07T02:24:54.731Z,17.16
2019-02-07T02:25:35.317Z,17.19
2019-02-07T02:26:15.971Z,17.16
2019-02-07T02:26:56.613Z,17.18
2019-02-07T02:27:37.215Z,17.16
2019-02-07T02:28:17.821Z,17.16
2019-02-07T02:28:58.431Z,17.16
2019-02-07T02:29:39.030Z,17.22
2019-02-07T02:30:19.634Z,17.23
2019-02-07T02:31:00.243Z,17.18
2019-02-07T02:31:40.844Z,17.25
2019-02-07T02:32:21.436Z,17.15
2019-02-07T02:33:02.043Z,17.15
2019-02-07T02:33:42.701Z,17.19
2019-02-07T02:34:23.296Z,17.16
2019-02-07T02:35:03.907Z,17.23
2019-02-07T02:35:44.503Z,17.19
2019-02-07T02:36:25.110Z,17.22
2019-02-07T02:37:05.711Z,17.22
2019-02-07T02:37:46.318Z,17.19
2019-02-07T02:38:26.946Z,17.14
2019-02-07T02:39:07.611Z,17.19
2019-02-07T02:39:48.228Z,17.16
2019-02-07T02:40:28.866Z,17.23
2019-02-07T02:41:09.513Z,17.18
2019-02-07T02:41:50.120Z,17.21
2019-02-07T02:42:30.745Z,17.18
2019-02-07T02:43:11.352Z,17.14
2019-02-07T02:43:51.934Z,17.16
2019-02-07T02:44:32.531Z,17.21
2019-02-07T02:45:13.120Z,17.22
2019-02-07T02:45:53.720Z,17.21
2019-02-07T02:46:34.331Z,17.22
2019-02-07T02:47:14.925Z,17.25
2019-02-07T02:47:55.515Z,17.19
2019-02-07T02:48:36.110Z,17.21
2019-02-07T02:49:16.707Z,17.16
2019-02-07T02:49:57.346Z,17.19
2019-02-07T02:50:37.968Z,17.19
2019-02-07T02:51:18.557Z,17.18
2019-02-07T02:51:59.186Z,17.21
2019-02-07T02:52:40.329Z,17.15
2019-02-07T02:53:20.396Z,17.22
2019-02-07T02:54:00.994Z,17.21
2019-02-07T02:54:41.616Z,17.19
2019-02-07T02:55:22.245Z,17.15
2019-02-07T02:56:02.861Z,17.18
2019-02-07T02:56:43.452Z,17.18
2019-02-07T02:57:24.052Z,17.16
2019-02-07T02:58:04.666Z,17.16
2019-02-07T02:58:45.268Z,17.19
2019-02-07T02:59:25.888Z,17.16
2019-02-07T03:00:06.528Z,17.21
2019-02-07T03:00:47.170Z,17.16
2019-02-07T03:01:27.721Z,17.15
2019-02-07T03:02:08.398Z,17.16
2019-02-07T03:02:49.024Z,17.18
2019-02-07T03:03:29.616Z,17.16
2019-02-07T03:04:10.210Z,17.16
2019-02-07T03:04:50.810Z,17.23
2019-02-07T03:05:31.410Z,17.15
2019-02-07T03:06:12.095Z,17.19
2019-02-07T03:06:52.609Z,17.15
2019-02-07T03:07:33.294Z,17.18
2019-02-07T03:08:13.791Z,17.19
2019-02-07T03:08:54.396Z,17.18
2019-02-07T03:09:34.992Z,17.15
2019-02-07T03:10:15.596Z,17.14
2019-02-07T03:10:56.204Z,17.14
2019-02-07T03:11:36.818Z,17.22
2019-02-07T03:12:17.418Z,17.21
2019-02-07T03:12:58.066Z,17.14
2019-02-07T03:13:40.242Z,17.14
2019-02-07T03:14:20.852Z,17.19
2019-02-07T03:15:01.446Z,17.22
2019-02-07T03:15:49.418Z,17.15
2019-02-07T03:16:22.686Z,17.16
2019-02-07T03:17:03.277Z,17.22
2019-02-07T03:17:43.898Z,17.16
2019-02-07T03:18:24.506Z,17.16
2019-02-07T03:19:05.141Z,17.15
2019-02-07T03:19:45.757Z,17.08
2019-02-07T03:20:26.348Z,17.11
2019-02-07T03:21:06.954Z,17.21
2019-02-07T03:21:47.622Z,17.18
2019-02-07T03:22:28.222Z,17.18
2019-02-07T03:23:08.816Z,17.16
2019-02-07T03:23:49.408Z,17.06
2019-02-07T03:24:30.039Z,17.14
2019-02-07T03:25:10.670Z,17.11
2019-02-07T03:25:51.286Z,17.14
2019-02-07T03:26:31.883Z,17.16
2019-02-07T03:27:12.484Z,17.18
2019-02-07T03:27:53.232Z,17.12
2019-02-07T03:28:33.828Z,17.16
2019-02-07T03:29:14.442Z,17.06
2019-02-07T03:29:55.040Z,17.12
2019-02-07T03:30:35.648Z,17.12
2019-02-07T03:31:16.248Z,17.12
2019-02-07T03:31:56.844Z,17.12
2019-02-07T03:32:37.457Z,17.12
2019-02-07T03:33:18.055Z,17.06
2019-02-07T03:33:58.674Z,17.14
2019-02-07T03:34:39.266Z,17.12
2019-02-07T03:35:19.873Z,17.11
2019-02-07T03:36:00.474Z,17.07
2019-02-07T03:36:41.076Z,17.06
2019-02-07T03:37:21.672Z,17.07
2019-02-07T03:38:02.282Z,17.12
2019-02-07T03:38:42.878Z,17.04
2019-02-07T03:39:23.470Z,17.07
2019-02-07T03:40:04.079Z,17.11
2019-02-07T03:40:44.694Z,17.11
2019-02-07T03:41:25.298Z,17.07
2019-02-07T03:42:05.893Z,17.15
2019-02-07T03:42:46.501Z,17.16
2019-02-07T03:43:27.108Z,17.18
2019-02-07T03:44:07.718Z,17.08
2019-02-07T03:44:48.302Z,17.16
2019-02-07T03:45:28.896Z,17.07
2019-02-07T03:46:09.487Z,17.11
2019-02-07T03:46:50.086Z,17.07
2019-02-07T03:47:30.706Z,17.12
2019-02-07T03:48:11.298Z,17.18
2019-02-07T03:48:51.898Z,17.08
2019-02-07T03:49:32.500Z,17.15
2019-02-07T03:50:13.098Z,17.04
2019-02-07T03:50:53.710Z,17.11
2019-02-07T03:51:34.308Z,17.07
2019-02-07T03:52:14.910Z,17.08
2019-02-07T03:52:55.501Z,17.07
2019-02-07T03:53:36.098Z,17.07
2019-02-07T03:54:16.706Z,17.08
2019-02-07T03:54:57.311Z,17.08
2019-02-07T03:55:37.944Z,17.07
2019-02-07T03:56:18.560Z,17.11
2019-02-07T03:56:59.158Z,17.14
2019-02-07T03:57:39.782Z,17.07
2019-02-07T03:58:20.382Z,17.08
2019-02-07T03:59:01.069Z,17.06
2019-02-07T03:59:41.642Z,17.15
2019-02-07T04:00:22.242Z,17.16
2019-02-07T04:01:02.871Z,17.06
2019-02-07T04:01:43.472Z,17.07
2019-02-07T04:02:24.072Z,17.01
2019-02-07T04:03:04.694Z,17.08
2019-02-07T04:03:45.287Z,17.04
2019-02-07T04:04:25.896Z,17.06
2019-02-07T04:05:06.510Z,17.07
2019-02-07T04:05:47.098Z,17.12
2019-02-07T04:06:27.730Z,17.11
2019-02-07T04:07:08.364Z,17.06
2019-02-07T04:07:48.958Z,17.11
2019-02-07T04:08:29.559Z,17.08
2019-02-07T04:09:10.166Z,17.08
2019-02-07T04:09:50.812Z,17.07
2019-02-07T04:10:31.448Z,17.11
2019-02-07T04:11:12.083Z,17.07
2019-02-07T04:11:52.717Z,17.11
2019-02-07T04:12:33.323Z,17.08
2019-02-07T04:13:13.922Z,17.06
2019-02-07T04:13:54.537Z,17.04
2019-02-07T04:14:35.138Z,17.15
2019-02-07T04:15:15.814Z,17.11
2019-02-07T04:15:56.406Z,17.14
2019-02-07T04:16:37.047Z,17.01
2019-02-07T04:17:17.668Z,17.06
2019-02-07T04:17:58.282Z,17.04
2019-02-07T04:18:38.872Z,17.04
2019-02-07T04:19:19.484Z,17.12
2019-02-07T04:20:00.101Z,17.03
2019-02-07T04:20:40.695Z,17.07
2019-02-07T04:21:21.309Z,17.04
2019-02-07T04:22:01.896Z,17.11
2019-02-07T04:22:42.506Z,17.11
2019-02-07T04:23:23.098Z,17.07
2019-02-07T04:24:03.726Z,17.11
2019-02-07T04:24:44.349Z,17.01
2019-02-07T04:25:24.960Z,17.06
2019-02-07T04:26:05.568Z,17.03
2019-02-07T04:26:46.202Z,17.01
2019-02-07T04:27:26.815Z,17.04
2019-02-07T04:28:07.426Z,17.11
2019-02-07T04:28:48.023Z,17.06
2019-02-07T04:29:28.633Z,17.14
2019-02-07T04:30:09.237Z,17.14
2019-02-07T04:30:49.829Z,17.06
2019-02-07T04:31:30.435Z,17.01
2019-02-07T04:32:11.031Z,17.14
2019-02-07T04:32:51.703Z,17.08
2019-02-07T04:33:32.326Z,17.04
2019-02-07T04:34:12.924Z,17.11
2019-02-07T04:34:53.530Z,17.11
2019-02-07T04:35:34.124Z,17.14
2019-02-07T04:36:14.724Z,17.14
2019-02-07T04:36:55.323Z,17.03
2019-02-07T04:37:35.932Z,17.08
2019-02-07T04:38:16.537Z,17.11
2019-02-07T04:38:57.139Z,17.04
2019-02-07T04:39:37.754Z,17
2019-02-07T04:40:18.372Z,17.15
2019-02-07T04:40:58.974Z,17.11
2019-02-07T04:41:39.591Z,17.12
2019-02-07T04:42:20.198Z,17.11
2019-02-07T04:43:00.794Z,17.11
2019-02-07T04:43:41.401Z,17.06
2019-02-07T04:44:22.008Z,17.11
2019-02-07T04:45:02.638Z,17.07
2019-02-07T04:45:43.248Z,17.03
2019-02-07T04:46:26.856Z,17.11
2019-02-07T04:47:04.469Z,17.12
2019-02-07T04:47:45.094Z,17.11
2019-02-07T04:48:25.685Z,17.03
2019-02-07T04:49:06.325Z,17.04
2019-02-07T04:49:46.926Z,17.07
2019-02-07T04:50:27.516Z,17.08
2019-02-07T04:51:08.109Z,17.07
2019-02-07T04:51:48.729Z,17.04
2019-02-07T04:52:29.328Z,17.15
2019-02-07T04:53:09.943Z,17.14
2019-02-07T04:53:50.524Z,17.07
2019-02-07T04:54:31.141Z,17.04
2019-02-07T04:55:11.738Z,17.14
2019-02-07T04:55:52.337Z,17.07
2019-02-07T04:56:32.992Z,17.12
2019-02-07T04:57:13.597Z,17.08
2019-02-07T04:57:54.196Z,17.12
2019-02-07T04:58:34.793Z,17.04
2019-02-07T04:59:15.401Z,17.06
2019-02-07T04:59:56.001Z,17.07
2019-02-07T05:00:36.603Z,17.06
2019-02-07T05:01:17.197Z,17.07
2019-02-07T05:01:57.786Z,17.06
2019-02-07T05:02:38.395Z,17.07
2019-02-07T05:03:18.998Z,17.08
2019-02-07T05:03:59.590Z,17.01
2019-02-07T05:04:40.211Z,17.12
2019-02-07T05:05:20.802Z,17.08
2019-02-07T05:06:01.422Z,17.08
2019-02-07T05:06:42.024Z,17.07
2019-02-07T05:07:22.652Z,17.06
2019-02-07T05:08:03.267Z,17.03
2019-02-07T05:08:43.856Z,17.06
2019-02-07T05:09:24.469Z,17.08
2019-02-07T05:10:05.079Z,17
2019-02-07T05:10:45.680Z,17.12
2019-02-07T05:11:26.288Z,17.07
2019-02-07T05:12:06.876Z,17.07
2019-02-07T05:12:47.470Z,17.12
2019-02-07T05:13:28.078Z,17.03
2019-02-07T05:14:08.683Z,17
2019-02-07T05:14:49.275Z,17.08
2019-02-07T05:15:29.871Z,17.03
2019-02-07T05:16:10.478Z,17.06
2019-02-07T05:16:51.082Z,17.07
2019-02-07T05:17:31.700Z,17.06
2019-02-07T05:18:12.334Z,17.07
2019-02-07T05:18:52.933Z,17.03
2019-02-07T05:19:33.591Z,17.06
2019-02-07T05:20:14.205Z,17
2019-02-07T05:20:54.812Z,17.01
2019-02-07T05:21:35.431Z,16.98
2019-02-07T05:22:16.032Z,17.14
2019-02-07T05:22:56.638Z,17
2019-02-07T05:23:37.237Z,17.06
2019-02-07T05:24:17.851Z,17.07
2019-02-07T05:24:58.457Z,17.07
2019-02-07T05:25:39.065Z,17.08
2019-02-07T05:26:19.677Z,17.11
2019-02-07T05:27:00.271Z,17.11
2019-02-07T05:27:40.909Z,17.06
2019-02-07T05:28:21.523Z,17.03
2019-02-07T05:29:02.122Z,17.06
2019-02-07T05:29:42.743Z,17.08
2019-02-07T05:30:23.348Z,17.12
2019-02-07T05:31:03.979Z,17.07
2019-02-07T05:31:44.593Z,17.06
2019-02-07T05:32:25.185Z,17.11
2019-02-07T05:33:05.791Z,17.11
2019-02-07T05:33:46.389Z,17.08
2019-02-07T05:34:26.987Z,17.03
2019-02-07T05:35:07.606Z,16.98
2019-02-07T05:35:48.203Z,16.98
2019-02-07T05:36:28.803Z,17.01
2019-02-07T05:37:09.400Z,16.98
2019-02-07T05:37:50.014Z,16.97
2019-02-07T05:38:30.650Z,17.04
2019-02-07T05:39:11.209Z,16.98
2019-02-07T05:39:51.833Z,16.96
2019-02-07T05:40:32.442Z,17.01
2019-02-07T05:41:13.037Z,17.06
2019-02-07T05:41:53.635Z,17.08
2019-02-07T05:42:34.242Z,17.01
2019-02-07T05:43:14.839Z,17.07
2019-02-07T05:43:55.437Z,17.01
2019-02-07T05:44:36.088Z,16.98
2019-02-07T05:45:16.626Z,17.01
2019-02-07T05:45:57.226Z,16.94
2019-02-07T05:46:37.817Z,17.01
2019-02-07T05:47:18.419Z,17.07
2019-02-07T05:47:59.024Z,16.93
2019-02-07T05:48:39.635Z,16.98
2019-02-07T05:49:20.242Z,16.96
2019-02-07T05:50:00.838Z,17.01
2019-02-07T05:50:41.434Z,16.98
2019-02-07T05:51:22.120Z,16.94
2019-02-07T05:52:02.655Z,17.01
2019-02-07T05:52:43.255Z,16.98
2019-02-07T05:53:23.871Z,17
2019-02-07T05:54:04.467Z,16.94
2019-02-07T05:54:45.111Z,16.98
2019-02-07T05:55:27.202Z,16.91
2019-02-07T05:56:07.805Z,16.98
2019-02-07T05:56:50.311Z,17.01
2019-02-07T05:57:30.923Z,17.03
2019-02-07T05:58:11.529Z,16.98
2019-02-07T05:58:52.142Z,16.93
2019-02-07T05:59:32.775Z,17
2019-02-07T06:00:13.365Z,17.03
2019-02-07T06:00:53.994Z,16.93
2019-02-07T06:01:34.633Z,16.96
2019-02-07T06:02:15.224Z,17.03
2019-02-07T06:02:55.845Z,17.01
2019-02-07T06:03:36.473Z,16.94
2019-02-07T06:04:17.165Z,16.94
2019-02-07T06:04:57.816Z,16.97
2019-02-07T06:05:38.619Z,16.93
2019-02-07T06:06:19.163Z,16.98
2019-02-07T06:06:59.781Z,16.96
2019-02-07T06:07:40.376Z,16.94
2019-02-07T06:08:21.131Z,16.93
2019-02-07T06:09:01.749Z,16.93
2019-02-07T06:09:42.367Z,16.98
2019-02-07T06:10:22.987Z,16.96
2019-02-07T06:11:03.572Z,17
2019-02-07T06:11:44.189Z,17
2019-02-07T06:12:24.797Z,16.94
2019-02-07T06:13:05.425Z,16.93
2019-02-07T06:13:46.023Z,16.96
2019-02-07T06:14:26.656Z,16.91
2019-02-07T06:15:07.266Z,16.94
2019-02-07T06:15:47.899Z,16.91
2019-02-07T06:16:28.510Z,16.91
2019-02-07T06:17:09.127Z,17.01
2019-02-07T06:17:49.723Z,16.91
2019-02-07T06:18:30.316Z,16.97
2019-02-07T06:19:10.914Z,16.97
2019-02-07T06:19:51.525Z,16.93
2019-02-07T06:20:32.141Z,16.98
2019-02-07T06:21:12.757Z,16.93
2019-02-07T06:21:53.363Z,17
2019-02-07T06:22:33.952Z,17.04
2019-02-07T06:23:14.601Z,16.93
2019-02-07T06:23:55.201Z,16.93
2019-02-07T06:24:35.834Z,17.03
2019-02-07T06:25:16.429Z,16.98
2019-02-07T06:25:57.053Z,16.96
2019-02-07T06:26:37.647Z,16.96
2019-02-07T06:27:20.854Z,16.97
2019-02-07T06:28:01.510Z,16.96
2019-02-07T06:28:42.106Z,16.93
2019-02-07T06:29:22.700Z,16.91
2019-02-07T06:30:03.341Z,16.97
2019-02-07T06:30:43.923Z,16.91
2019-02-07T06:31:24.554Z,16.93
2019-02-07T06:32:05.169Z,16.93
2019-02-07T06:32:45.766Z,16.94
2019-02-07T06:33:26.388Z,16.94
2019-02-07T06:34:07.615Z,16.97
2019-02-07T06:34:49.343Z,16.98
2019-02-07T06:35:29.971Z,16.94
2019-02-07T06:36:10.575Z,16.91
2019-02-07T06:36:51.195Z,16.96
2019-02-07T06:37:31.831Z,16.97
2019-02-07T06:38:12.412Z,17.01
2019-02-07T06:38:53.033Z,16.91
2019-02-07T06:39:33.640Z,17.03
2019-02-07T06:40:14.257Z,16.96
2019-02-07T06:40:54.887Z,16.91
2019-02-07T06:41:35.515Z,16.98
2019-02-07T06:42:16.165Z,16.93
2019-02-07T06:42:56.781Z,17.01
2019-02-07T06:43:37.398Z,16.94
2019-02-07T06:44:17.997Z,16.93
2019-02-07T06:44:58.595Z,16.89
2019-02-07T06:45:39.248Z,16.94
2019-02-07T06:46:19.843Z,16.97
2019-02-07T06:47:00.505Z,16.94
2019-02-07T06:47:41.098Z,16.96
2019-02-07T06:48:21.701Z,16.93
2019-02-07T06:49:02.310Z,16.93
2019-02-07T06:49:42.919Z,16.94
2019-02-07T06:50:23.510Z,16.96
2019-02-07T06:51:04.105Z,17.03
2019-02-07T06:51:44.705Z,16.91
2019-02-07T06:52:25.317Z,16.96
2019-02-07T06:53:05.919Z,16.94
2019-02-07T06:53:46.517Z,16.98
2019-02-07T06:54:27.123Z,16.94
2019-02-07T06:55:07.719Z,16.96
2019-02-07T06:55:48.330Z,16.96
2019-02-07T06:56:28.939Z,16.93
2019-02-07T06:57:09.577Z,17.03
2019-02-07T06:57:50.187Z,16.96
2019-02-07T06:58:30.795Z,16.96
2019-02-07T06:59:11.395Z,16.96
2019-02-07T06:59:52.013Z,17.03
2019-02-07T07:00:32.614Z,16.96
2019-02-07T07:01:13.294Z,17.03
2019-02-07T07:01:53.842Z,16.98
2019-02-07T07:02:34.445Z,16.94
2019-02-07T07:03:15.042Z,17.01
2019-02-07T07:03:57.624Z,16.96
2019-02-07T07:04:36.324Z,17.03
2019-02-07T07:05:16.943Z,16.98
2019-02-07T07:05:57.533Z,17
2019-02-07T07:06:38.123Z,17.07
2019-02-07T07:07:18.715Z,16.96
2019-02-07T07:07:59.376Z,16.98
2019-02-07T07:08:39.964Z,16.98
2019-02-07T07:09:20.555Z,17
2019-02-07T07:10:01.173Z,16.97
2019-02-07T07:10:41.780Z,17.01
2019-02-07T07:11:22.369Z,16.98
2019-02-07T07:12:02.985Z,17.01
2019-02-07T07:12:43.595Z,17.12
2019-02-07T07:13:24.239Z,17.06
2019-02-07T07:14:04.838Z,17.07
2019-02-07T07:14:45.443Z,17.01
2019-02-07T07:15:26.058Z,16.98
2019-02-07T07:16:06.691Z,17.07
2019-02-07T07:16:47.301Z,17.01
2019-02-07T07:17:27.900Z,17.06
2019-02-07T07:18:08.535Z,16.98
2019-02-07T07:18:49.140Z,17.03
2019-02-07T07:19:29.755Z,17.12
2019-02-07T07:20:10.347Z,17.01
2019-02-07T07:20:50.945Z,17.08
2019-02-07T07:21:31.568Z,16.98
2019-02-07T07:22:12.191Z,17.04
2019-02-07T07:22:52.815Z,17.08
2019-02-07T07:23:33.405Z,16.98
2019-02-07T07:24:14.026Z,17.03
2019-02-07T07:24:54.614Z,16.98
2019-02-07T07:25:35.240Z,17.11
2019-02-07T07:26:15.827Z,17.01
2019-02-07T07:26:56.425Z,17.06
2019-02-07T07:27:37.031Z,17.07
2019-02-07T07:28:17.664Z,17.08
2019-02-07T07:28:58.257Z,17.12
2019-02-07T07:29:38.885Z,17.06
2019-02-07T07:30:19.483Z,17.07
2019-02-07T07:31:00.085Z,17.01
2019-02-07T07:31:40.695Z,17.01
2019-02-07T07:32:21.286Z,17
2019-02-07T07:33:01.884Z,17.01
2019-02-07T07:33:42.473Z,17.07
2019-02-07T07:34:24.772Z,17.04
2019-02-07T07:35:05.389Z,17.04
2019-02-07T07:35:45.989Z,17.03
2019-02-07T07:36:26.601Z,17.03
2019-02-07T07:37:07.207Z,17.12
2019-02-07T07:37:47.810Z,17.03
2019-02-07T07:38:28.413Z,17.08
2019-02-07T07:39:09.010Z,17.08
2019-02-07T07:39:49.653Z,17.07
2019-02-07T07:40:30.243Z,17.14
2019-02-07T07:41:12.767Z,17.08
2019-02-07T07:41:53.391Z,17.01
2019-02-07T07:42:34.031Z,17.11
2019-02-07T07:43:14.627Z,17.06
2019-02-07T07:43:55.217Z,17.14
2019-02-07T07:44:35.812Z,17.04
2019-02-07T07:45:16.419Z,17.07
2019-02-07T07:45:57.014Z,17.04
2019-02-07T07:46:37.622Z,17.07
2019-02-07T07:47:18.246Z,17.14
2019-02-07T07:47:58.833Z,17.11
2019-02-07T07:48:39.425Z,17.11
2019-02-07T07:49:20.027Z,17.12
2019-02-07T07:50:00.733Z,17.06
2019-02-07T07:50:41.223Z,17.04
2019-02-07T07:51:23.541Z,17.08
2019-02-07T07:52:04.183Z,17.03
2019-02-07T07:52:44.811Z,17.11
2019-02-07T07:53:25.415Z,17.01
2019-02-07T07:54:06.143Z,17.15
2019-02-07T07:54:46.753Z,17.11
2019-02-07T07:55:27.338Z,17.11
2019-02-07T07:56:07.963Z,17.04
2019-02-07T07:56:48.671Z,17.06
2019-02-07T07:57:31.069Z,17.06
2019-02-07T07:58:11.699Z,17.01
2019-02-07T07:58:52.325Z,17.04
2019-02-07T07:59:32.933Z,16.96
2019-02-07T08:00:13.545Z,17.06
2019-02-07T08:00:54.143Z,17.06
2019-02-07T08:01:34.744Z,17.06
2019-02-07T08:02:15.321Z,17.04
2019-02-07T08:02:55.949Z,17.07
2019-02-07T08:03:38.550Z,17.03
2019-02-07T08:04:19.170Z,17.04
2019-02-07T08:04:59.759Z,17.07
2019-02-07T08:05:40.359Z,17.04
2019-02-07T08:06:20.963Z,17.07
2019-02-07T08:07:01.569Z,17.08
2019-02-07T08:07:42.167Z,17.08
2019-02-07T08:08:22.763Z,17.07
2019-02-07T08:09:03.367Z,17.04
2019-02-07T08:09:43.985Z,17.12
2019-02-07T08:10:24.577Z,17.12
2019-02-07T08:11:06.961Z,17.07
2019-02-07T08:11:45.777Z,17.07
2019-02-07T08:12:26.379Z,17.14
2019-02-07T08:13:06.980Z,17.11
2019-02-07T08:13:47.601Z,17.08
2019-02-07T08:14:28.201Z,17.07
2019-02-07T08:15:08.791Z,17.11
2019-02-07T08:15:49.381Z,17.06
2019-02-07T08:16:29.995Z,17.14
2019-02-07T08:17:10.611Z,17.04
2019-02-07T08:17:51.205Z,17.07
2019-02-07T08:18:31.821Z,17.15
2019-02-07T08:19:12.424Z,17.12
2019-02-07T08:19:53.053Z,17.08
2019-02-07T08:20:33.664Z,17.11
2019-02-07T08:21:14.259Z,17.11
2019-02-07T08:21:54.861Z,17.14
2019-02-07T08:22:37.271Z,17.06
2019-02-07T08:23:17.875Z,17.11
2019-02-07T08:23:58.468Z,17.11
2019-02-07T08:24:40.905Z,17.08
2019-02-07T08:25:21.540Z,17.07
2019-02-07T08:26:02.139Z,17.08
2019-02-07T08:26:42.749Z,17.12
2019-02-07T08:27:23.395Z,17.04
2019-02-07T08:28:03.994Z,17.04
2019-02-07T08:28:44.612Z,17.06
2019-02-07T08:29:25.210Z,17.08
2019-02-07T08:30:05.799Z,17.07
2019-02-07T08:30:46.397Z,17.04
2019-02-07T08:31:26.989Z,17.14
2019-02-07T08:32:07.595Z,17.06
2019-02-07T08:32:48.221Z,17.07
2019-02-07T08:33:28.807Z,17.11
2019-02-07T08:34:09.407Z,17.11
2019-02-07T08:34:49.993Z,17.11
2019-02-07T08:35:30.586Z,17.08
2019-02-07T08:36:11.193Z,17.08
2019-02-07T08:36:51.796Z,17.11
2019-02-07T08:37:32.397Z,17.11
2019-02-07T08:38:12.983Z,17.11
2019-02-07T08:38:53.581Z,17.15
2019-02-07T08:39:34.204Z,17.07
2019-02-07T08:40:14.809Z,17.08
2019-02-07T08:40:55.393Z,17.11
2019-02-07T08:41:35.992Z,17.08
2019-02-07T08:42:16.601Z,17.07
2019-02-07T08:42:57.203Z,17.16
2019-02-07T08:43:37.803Z,17.12
2019-02-07T08:44:18.395Z,17.08